sensor_id;sensor_type;location;lat;lon;timestamp;P1;durP1;ratioP1;P2;durP2;ratioP2
29422;SDS011;16399;51.686;8.684;2023-02-26T00:00:18;7.60;;;2.25;;
29422;SDS011;16399;51.686;8.684;2023-02-26T00:03:20;6.33;;;2.15;;
29422;SDS011;16399;51.686;8.684;2023-02-26T00:06:23;7.85;;;2.50;;
29422;SDS011;16399;51.686;8.684;2023-02-26T00:09:26;5.37;;;1.90;;
29422;SDS011;16399;51.686;8.684;2023-02-26T00:12:28;4.53;;;2.08;;
29422;SDS011;16399;51.686;8.684;2023-02-26T00:15:31;6.15;;;1.87;;
29422;SDS011;16399;51.686;8.684;2023-02-26T00:18:33;3.50;;;1.50;;
29422;SDS011;16399;51.686;8.684;2023-02-26T00:21:36;6.60;;;1.65;;
29422;SDS011;16399;51.686;8.684;2023-02-26T00:24:38;5.78;;;2.30;;
29422;SDS011;16399;51.686;8.684;2023-02-26T00:27:41;7.95;;;1.87;;
29422;SDS011;16399;51.686;8.684;2023-02-26T00:30:44;4.53;;;1.95;;
29422;SDS011;16399;51.686;8.684;2023-02-26T00:33:46;5.42;;;1.70;;
29422;SDS011;16399;51.686;8.684;2023-02-26T00:40:13;3.50;;;1.60;;
29422;SDS011;16399;51.686;8.684;2023-02-26T00:43:32;7.12;;;1.92;;
29422;SDS011;16399;51.686;8.684;2023-02-26T00:46:37;4.40;;;1.75;;
29422;SDS011;16399;51.686;8.684;2023-02-26T00:56:12;4.78;;;1.80;;
29422;SDS011;16399;51.686;8.684;2023-02-26T00:59:15;6.20;;;2.20;;
29422;SDS011;16399;51.686;8.684;2023-02-26T01:02:18;5.70;;;2.07;;
29422;SDS011;16399;51.686;8.684;2023-02-26T01:05:21;8.15;;;2.70;;
29422;SDS011;16399;51.686;8.684;2023-02-26T01:08:26;8.78;;;2.80;;
29422;SDS011;16399;51.686;8.684;2023-02-26T01:11:35;6.87;;;3.33;;
29422;SDS011;16399;51.686;8.684;2023-02-26T01:14:37;11.95;;;3.55;;
29422;SDS011;16399;51.686;8.684;2023-02-26T01:17:50;13.35;;;4.12;;
29422;SDS011;16399;51.686;8.684;2023-02-26T01:21:06;7.37;;;3.22;;
29422;SDS011;16399;51.686;8.684;2023-02-26T01:24:06;8.00;;;3.00;;
29422;SDS011;16399;51.686;8.684;2023-02-26T01:27:11;8.80;;;3.08;;
29422;SDS011;16399;51.686;8.684;2023-02-26T01:30:14;8.90;;;3.12;;
29422;SDS011;16399;51.686;8.684;2023-02-26T01:33:21;7.78;;;2.98;;
29422;SDS011;16399;51.686;8.684;2023-02-26T01:36:30;7.28;;;2.70;;
29422;SDS011;16399;51.686;8.684;2023-02-26T01:39:38;6.90;;;2.72;;
29422;SDS011;16399;51.686;8.684;2023-02-26T01:42:42;7.03;;;2.83;;
29422;SDS011;16399;51.686;8.684;2023-02-26T01:45:58;7.05;;;2.40;;
29422;SDS011;16399;51.686;8.684;2023-02-26T01:49:16;4.90;;;1.90;;
29422;SDS011;16399;51.686;8.684;2023-02-26T01:55:37;4.85;;;2.10;;
29422;SDS011;16399;51.686;8.684;2023-02-26T01:58:42;4.75;;;2.22;;
29422;SDS011;16399;51.686;8.684;2023-02-26T02:04:49;6.15;;;1.95;;
29422;SDS011;16399;51.686;8.684;2023-02-26T02:07:51;6.55;;;2.25;;
29422;SDS011;16399;51.686;8.684;2023-02-26T02:10:54;8.35;;;2.85;;
29422;SDS011;16399;51.686;8.684;2023-02-26T02:21:05;6.33;;;2.12;;
29422;SDS011;16399;51.686;8.684;2023-02-26T02:24:54;5.22;;;1.90;;
29422;SDS011;16399;51.686;8.684;2023-02-26T02:27:21;4.90;;;1.90;;
29422;SDS011;16399;51.686;8.684;2023-02-26T02:30:37;4.78;;;2.10;;
29422;SDS011;16399;51.686;8.684;2023-02-26T02:34:14;5.33;;;1.70;;
29422;SDS011;16399;51.686;8.684;2023-02-26T02:37:29;6.53;;;2.27;;
29422;SDS011;16399;51.686;8.684;2023-02-26T02:40:33;4.70;;;1.72;;
29422;SDS011;16399;51.686;8.684;2023-02-26T02:43:38;6.25;;;1.95;;
29422;SDS011;16399;51.686;8.684;2023-02-26T02:46:43;5.40;;;1.85;;
29422;SDS011;16399;51.686;8.684;2023-02-26T02:49:50;6.87;;;2.22;;
29422;SDS011;16399;51.686;8.684;2023-02-26T02:52:56;4.92;;;1.75;;
29422;SDS011;16399;51.686;8.684;2023-02-26T02:56:06;6.00;;;1.70;;
29422;SDS011;16399;51.686;8.684;2023-02-26T02:59:14;4.53;;;1.80;;
29422;SDS011;16399;51.686;8.684;2023-02-26T03:02:22;5.70;;;1.92;;
29422;SDS011;16399;51.686;8.684;2023-02-26T03:05:25;6.05;;;2.05;;
29422;SDS011;16399;51.686;8.684;2023-02-26T03:08:29;6.92;;;2.20;;
29422;SDS011;16399;51.686;8.684;2023-02-26T03:11:33;7.33;;;1.80;;
29422;SDS011;16399;51.686;8.684;2023-02-26T03:14:37;3.63;;;1.40;;
29422;SDS011;16399;51.686;8.684;2023-02-26T03:17:45;3.95;;;1.50;;
29422;SDS011;16399;51.686;8.684;2023-02-26T03:20:49;5.10;;;1.60;;
29422;SDS011;16399;51.686;8.684;2023-02-26T03:23:57;7.50;;;1.85;;
29422;SDS011;16399;51.686;8.684;2023-02-26T03:30:38;3.08;;;1.47;;
29422;SDS011;16399;51.686;8.684;2023-02-26T03:33:53;6.25;;;1.47;;
29422;SDS011;16399;51.686;8.684;2023-02-26T03:36:58;7.03;;;1.37;;
29422;SDS011;16399;51.686;8.684;2023-02-26T03:40:03;6.12;;;1.67;;
29422;SDS011;16399;51.686;8.684;2023-02-26T03:43:12;4.35;;;1.40;;
29422;SDS011;16399;51.686;8.684;2023-02-26T03:46:23;4.12;;;1.47;;
29422;SDS011;16399;51.686;8.684;2023-02-26T03:49:29;4.50;;;1.70;;
29422;SDS011;16399;51.686;8.684;2023-02-26T03:52:33;2.75;;;1.22;;
29422;SDS011;16399;51.686;8.684;2023-02-26T03:55:43;6.55;;;1.15;;
29422;SDS011;16399;51.686;8.684;2023-02-26T03:58:43;4.15;;;1.22;;
29422;SDS011;16399;51.686;8.684;2023-02-26T04:01:48;3.45;;;1.10;;
29422;SDS011;16399;51.686;8.684;2023-02-26T04:05:05;4.00;;;1.20;;
29422;SDS011;16399;51.686;8.684;2023-02-26T04:08:05;5.17;;;1.22;;
29422;SDS011;16399;51.686;8.684;2023-02-26T04:11:09;6.70;;;1.37;;
29422;SDS011;16399;51.686;8.684;2023-02-26T04:14:13;4.85;;;1.50;;
29422;SDS011;16399;51.686;8.684;2023-02-26T04:17:16;4.87;;;1.65;;
29422;SDS011;16399;51.686;8.684;2023-02-26T04:20:18;2.50;;;1.00;;
29422;SDS011;16399;51.686;8.684;2023-02-26T04:23:20;10.90;;;1.67;;
29422;SDS011;16399;51.686;8.684;2023-02-26T04:26:23;6.85;;;1.55;;
29422;SDS011;16399;51.686;8.684;2023-02-26T04:29:25;6.40;;;1.50;;
29422;SDS011;16399;51.686;8.684;2023-02-26T04:32:27;5.33;;;1.20;;
29422;SDS011;16399;51.686;8.684;2023-02-26T04:35:30;4.28;;;1.47;;
29422;SDS011;16399;51.686;8.684;2023-02-26T04:38:33;5.55;;;1.42;;
29422;SDS011;16399;51.686;8.684;2023-02-26T04:41:35;7.03;;;1.70;;
29422;SDS011;16399;51.686;8.684;2023-02-26T04:44:38;6.65;;;1.37;;
29422;SDS011;16399;51.686;8.684;2023-02-26T04:47:40;7.22;;;1.40;;
29422;SDS011;16399;51.686;8.684;2023-02-26T04:50:43;5.50;;;1.50;;
29422;SDS011;16399;51.686;8.684;2023-02-26T04:53:46;6.72;;;1.70;;
29422;SDS011;16399;51.686;8.684;2023-02-26T04:56:48;7.28;;;1.60;;
29422;SDS011;16399;51.686;8.684;2023-02-26T04:59:50;3.60;;;1.35;;
29422;SDS011;16399;51.686;8.684;2023-02-26T05:02:53;6.55;;;1.65;;
29422;SDS011;16399;51.686;8.684;2023-02-26T05:05:55;4.67;;;1.25;;
29422;SDS011;16399;51.686;8.684;2023-02-26T05:08:58;3.80;;;1.25;;
29422;SDS011;16399;51.686;8.684;2023-02-26T05:12:00;6.40;;;1.52;;
29422;SDS011;16399;51.686;8.684;2023-02-26T05:15:03;6.00;;;1.42;;
29422;SDS011;16399;51.686;8.684;2023-02-26T05:18:05;4.37;;;1.25;;
29422;SDS011;16399;51.686;8.684;2023-02-26T05:21:08;5.75;;;1.77;;
29422;SDS011;16399;51.686;8.684;2023-02-26T05:24:10;3.52;;;1.10;;
29422;SDS011;16399;51.686;8.684;2023-02-26T05:27:12;4.30;;;1.55;;
29422;SDS011;16399;51.686;8.684;2023-02-26T05:30:15;3.95;;;1.40;;
29422;SDS011;16399;51.686;8.684;2023-02-26T05:33:17;3.90;;;1.55;;
29422;SDS011;16399;51.686;8.684;2023-02-26T05:36:19;4.53;;;1.35;;
29422;SDS011;16399;51.686;8.684;2023-02-26T05:39:21;7.35;;;1.32;;
29422;SDS011;16399;51.686;8.684;2023-02-26T05:42:24;5.55;;;1.40;;
29422;SDS011;16399;51.686;8.684;2023-02-26T05:45:26;5.08;;;1.45;;
29422;SDS011;16399;51.686;8.684;2023-02-26T05:48:28;3.25;;;1.47;;
29422;SDS011;16399;51.686;8.684;2023-02-26T05:51:31;2.90;;;1.22;;
29422;SDS011;16399;51.686;8.684;2023-02-26T05:54:33;3.92;;;1.50;;
29422;SDS011;16399;51.686;8.684;2023-02-26T05:57:35;4.65;;;1.72;;
29422;SDS011;16399;51.686;8.684;2023-02-26T06:00:38;5.05;;;1.85;;
29422;SDS011;16399;51.686;8.684;2023-02-26T06:03:40;4.25;;;1.85;;
29422;SDS011;16399;51.686;8.684;2023-02-26T06:06:43;8.00;;;2.25;;
29422;SDS011;16399;51.686;8.684;2023-02-26T06:09:46;7.72;;;2.02;;
29422;SDS011;16399;51.686;8.684;2023-02-26T06:12:48;6.92;;;1.70;;
29422;SDS011;16399;51.686;8.684;2023-02-26T06:15:50;4.00;;;1.65;;
29422;SDS011;16399;51.686;8.684;2023-02-26T06:18:53;7.00;;;1.45;;
29422;SDS011;16399;51.686;8.684;2023-02-26T06:21:55;3.22;;;1.40;;
29422;SDS011;16399;51.686;8.684;2023-02-26T06:24:57;6.25;;;1.65;;
29422;SDS011;16399;51.686;8.684;2023-02-26T06:28:00;5.30;;;1.55;;
29422;SDS011;16399;51.686;8.684;2023-02-26T06:31:02;6.45;;;1.80;;
29422;SDS011;16399;51.686;8.684;2023-02-26T06:34:04;4.60;;;1.52;;
29422;SDS011;16399;51.686;8.684;2023-02-26T06:37:07;5.72;;;1.67;;
29422;SDS011;16399;51.686;8.684;2023-02-26T06:40:09;5.40;;;1.82;;
29422;SDS011;16399;51.686;8.684;2023-02-26T06:43:12;5.22;;;2.25;;
29422;SDS011;16399;51.686;8.684;2023-02-26T06:46:14;4.08;;;1.50;;
29422;SDS011;16399;51.686;8.684;2023-02-26T06:49:17;3.27;;;1.20;;
29422;SDS011;16399;51.686;8.684;2023-02-26T06:52:19;4.55;;;1.75;;
29422;SDS011;16399;51.686;8.684;2023-02-26T06:55:21;4.45;;;1.50;;
29422;SDS011;16399;51.686;8.684;2023-02-26T06:58:25;4.83;;;1.52;;
29422;SDS011;16399;51.686;8.684;2023-02-26T07:01:27;4.58;;;1.60;;
29422;SDS011;16399;51.686;8.684;2023-02-26T07:04:31;6.20;;;2.00;;
29422;SDS011;16399;51.686;8.684;2023-02-26T07:07:33;5.85;;;2.10;;
29422;SDS011;16399;51.686;8.684;2023-02-26T07:10:36;6.22;;;1.40;;
29422;SDS011;16399;51.686;8.684;2023-02-26T07:13:38;4.60;;;1.42;;
29422;SDS011;16399;51.686;8.684;2023-02-26T07:16:41;3.40;;;1.42;;
29422;SDS011;16399;51.686;8.684;2023-02-26T07:19:43;4.87;;;1.55;;
29422;SDS011;16399;51.686;8.684;2023-02-26T07:22:46;5.55;;;1.22;;
29422;SDS011;16399;51.686;8.684;2023-02-26T07:25:48;4.05;;;1.80;;
29422;SDS011;16399;51.686;8.684;2023-02-26T07:28:51;6.10;;;1.77;;
29422;SDS011;16399;51.686;8.684;2023-02-26T07:31:53;9.18;;;1.70;;
29422;SDS011;16399;51.686;8.684;2023-02-26T07:34:55;9.98;;;2.47;;
29422;SDS011;16399;51.686;8.684;2023-02-26T07:37:57;4.12;;;1.37;;
29422;SDS011;16399;51.686;8.684;2023-02-26T07:41:00;3.20;;;1.10;;
29422;SDS011;16399;51.686;8.684;2023-02-26T07:44:02;5.05;;;1.70;;
29422;SDS011;16399;51.686;8.684;2023-02-26T07:47:04;4.33;;;1.50;;
29422;SDS011;16399;51.686;8.684;2023-02-26T07:50:07;11.22;;;2.00;;
29422;SDS011;16399;51.686;8.684;2023-02-26T07:53:10;6.97;;;1.45;;
29422;SDS011;16399;51.686;8.684;2023-02-26T07:56:12;4.80;;;1.25;;
29422;SDS011;16399;51.686;8.684;2023-02-26T07:59:15;3.52;;;1.20;;
29422;SDS011;16399;51.686;8.684;2023-02-26T08:02:17;3.33;;;1.37;;
29422;SDS011;16399;51.686;8.684;2023-02-26T08:05:19;6.08;;;1.12;;
29422;SDS011;16399;51.686;8.684;2023-02-26T08:08:21;2.85;;;1.10;;
29422;SDS011;16399;51.686;8.684;2023-02-26T08:11:24;4.70;;;1.37;;
29422;SDS011;16399;51.686;8.684;2023-02-26T08:14:26;4.45;;;1.10;;
29422;SDS011;16399;51.686;8.684;2023-02-26T08:17:28;6.55;;;1.57;;
29422;SDS011;16399;51.686;8.684;2023-02-26T08:20:31;2.35;;;1.07;;
29422;SDS011;16399;51.686;8.684;2023-02-26T08:23:33;4.45;;;1.40;;
29422;SDS011;16399;51.686;8.684;2023-02-26T08:26:35;5.42;;;1.30;;
29422;SDS011;16399;51.686;8.684;2023-02-26T08:29:38;3.15;;;1.27;;
29422;SDS011;16399;51.686;8.684;2023-02-26T08:32:40;5.80;;;1.60;;
29422;SDS011;16399;51.686;8.684;2023-02-26T08:35:43;10.60;;;1.40;;
29422;SDS011;16399;51.686;8.684;2023-02-26T08:38:45;4.62;;;1.20;;
29422;SDS011;16399;51.686;8.684;2023-02-26T08:41:48;2.80;;;0.93;;
29422;SDS011;16399;51.686;8.684;2023-02-26T08:44:50;3.98;;;1.30;;
29422;SDS011;16399;51.686;8.684;2023-02-26T08:47:52;6.97;;;1.52;;
29422;SDS011;16399;51.686;8.684;2023-02-26T08:50:55;9.48;;;1.30;;
29422;SDS011;16399;51.686;8.684;2023-02-26T08:53:58;4.60;;;1.25;;
29422;SDS011;16399;51.686;8.684;2023-02-26T08:57:00;2.92;;;1.30;;
29422;SDS011;16399;51.686;8.684;2023-02-26T09:00:03;7.10;;;1.40;;
29422;SDS011;16399;51.686;8.684;2023-02-26T09:03:08;2.95;;;1.02;;
29422;SDS011;16399;51.686;8.684;2023-02-26T09:06:11;4.53;;;0.90;;
29422;SDS011;16399;51.686;8.684;2023-02-26T09:09:13;4.22;;;1.20;;
29422;SDS011;16399;51.686;8.684;2023-02-26T09:12:15;4.10;;;1.02;;
29422;SDS011;16399;51.686;8.684;2023-02-26T09:15:17;6.50;;;1.40;;
29422;SDS011;16399;51.686;8.684;2023-02-26T09:18:20;4.70;;;0.90;;
29422;SDS011;16399;51.686;8.684;2023-02-26T09:21:22;2.80;;;1.00;;
29422;SDS011;16399;51.686;8.684;2023-02-26T09:24:25;6.15;;;0.90;;
29422;SDS011;16399;51.686;8.684;2023-02-26T09:27:27;3.87;;;0.80;;
29422;SDS011;16399;51.686;8.684;2023-02-26T09:30:29;4.33;;;0.85;;
29422;SDS011;16399;51.686;8.684;2023-02-26T09:33:32;2.37;;;0.80;;
29422;SDS011;16399;51.686;8.684;2023-02-26T09:36:35;4.60;;;1.00;;
29422;SDS011;16399;51.686;8.684;2023-02-26T09:39:38;5.15;;;0.85;;
29422;SDS011;16399;51.686;8.684;2023-02-26T09:42:44;2.20;;;0.78;;
29422;SDS011;16399;51.686;8.684;2023-02-26T09:46:02;5.35;;;1.05;;
29422;SDS011;16399;51.686;8.684;2023-02-26T09:52:47;2.98;;;0.80;;
29422;SDS011;16399;51.686;8.684;2023-02-26T09:56:09;3.87;;;1.12;;
29422;SDS011;16399;51.686;8.684;2023-02-26T09:59:28;4.83;;;1.00;;
29422;SDS011;16399;51.686;8.684;2023-02-26T10:02:39;5.05;;;1.00;;
29422;SDS011;16399;51.686;8.684;2023-02-26T10:09:34;9.15;;;1.32;;
29422;SDS011;16399;51.686;8.684;2023-02-26T10:12:39;3.70;;;0.90;;
29422;SDS011;16399;51.686;8.684;2023-02-26T10:15:43;3.30;;;0.72;;
29422;SDS011;16399;51.686;8.684;2023-02-26T10:18:49;3.15;;;0.98;;
29422;SDS011;16399;51.686;8.684;2023-02-26T10:22:10;2.50;;;0.90;;
29422;SDS011;16399;51.686;8.684;2023-02-26T10:25:23;4.75;;;1.12;;
29422;SDS011;16399;51.686;8.684;2023-02-26T10:28:44;4.00;;;1.20;;
29422;SDS011;16399;51.686;8.684;2023-02-26T10:35:18;7.92;;;1.72;;
29422;SDS011;16399;51.686;8.684;2023-02-26T10:38:24;3.77;;;1.25;;
29422;SDS011;16399;51.686;8.684;2023-02-26T10:41:29;2.77;;;0.80;;
29422;SDS011;16399;51.686;8.684;2023-02-26T10:44:40;3.10;;;0.80;;
29422;SDS011;16399;51.686;8.684;2023-02-26T10:51:17;7.72;;;1.32;;
29422;SDS011;16399;51.686;8.684;2023-02-26T10:57:28;6.70;;;1.57;;
29422;SDS011;16399;51.686;8.684;2023-02-26T11:00:34;3.35;;;1.12;;
29422;SDS011;16399;51.686;8.684;2023-02-26T11:03:38;3.87;;;0.98;;
29422;SDS011;16399;51.686;8.684;2023-02-26T11:06:47;3.12;;;1.10;;
29422;SDS011;16399;51.686;8.684;2023-02-26T11:09:50;2.62;;;0.70;;
29422;SDS011;16399;51.686;8.684;2023-02-26T11:12:54;3.27;;;0.88;;
29422;SDS011;16399;51.686;8.684;2023-02-26T11:15:57;2.12;;;0.70;;
29422;SDS011;16399;51.686;8.684;2023-02-26T11:19:01;3.08;;;0.70;;
29422;SDS011;16399;51.686;8.684;2023-02-26T11:22:05;2.45;;;0.82;;
29422;SDS011;16399;51.686;8.684;2023-02-26T11:31:22;3.47;;;0.80;;
29422;SDS011;16399;51.686;8.684;2023-02-26T11:34:26;3.52;;;1.12;;
29422;SDS011;16399;51.686;8.684;2023-02-26T11:37:35;2.00;;;0.85;;
29422;SDS011;16399;51.686;8.684;2023-02-26T11:40:40;3.20;;;0.93;;
29422;SDS011;16399;51.686;8.684;2023-02-26T11:43:47;2.92;;;0.75;;
29422;SDS011;16399;51.686;8.684;2023-02-26T11:46:53;3.77;;;0.88;;
29422;SDS011;16399;51.686;8.684;2023-02-26T11:50:01;1.27;;;0.62;;
29422;SDS011;16399;51.686;8.684;2023-02-26T11:53:06;1.98;;;0.70;;
29422;SDS011;16399;51.686;8.684;2023-02-26T11:56:12;2.85;;;0.70;;
29422;SDS011;16399;51.686;8.684;2023-02-26T11:59:18;1.55;;;0.80;;
29422;SDS011;16399;51.686;8.684;2023-02-26T12:02:23;3.47;;;0.70;;
29422;SDS011;16399;51.686;8.684;2023-02-26T12:05:30;6.42;;;1.00;;
29422;SDS011;16399;51.686;8.684;2023-02-26T12:08:34;2.70;;;0.70;;
29422;SDS011;16399;51.686;8.684;2023-02-26T12:11:49;2.10;;;0.70;;
29422;SDS011;16399;51.686;8.684;2023-02-26T12:15:13;3.85;;;0.90;;
29422;SDS011;16399;51.686;8.684;2023-02-26T12:18:28;5.70;;;0.70;;
29422;SDS011;16399;51.686;8.684;2023-02-26T12:21:50;2.05;;;0.70;;
29422;SDS011;16399;51.686;8.684;2023-02-26T12:24:56;5.20;;;1.00;;
29422;SDS011;16399;51.686;8.684;2023-02-26T12:34:32;4.10;;;0.80;;
29422;SDS011;16399;51.686;8.684;2023-02-26T12:37:35;1.50;;;0.50;;
29422;SDS011;16399;51.686;8.684;2023-02-26T12:40:53;2.05;;;0.60;;
29422;SDS011;16399;51.686;8.684;2023-02-26T12:44:19;2.42;;;0.57;;
29422;SDS011;16399;51.686;8.684;2023-02-26T12:47:33;2.70;;;0.60;;
29422;SDS011;16399;51.686;8.684;2023-02-26T12:50:43;3.08;;;0.90;;
29422;SDS011;16399;51.686;8.684;2023-02-26T12:54:07;3.42;;;0.60;;
29422;SDS011;16399;51.686;8.684;2023-02-26T13:07:47;2.27;;;0.60;;
29422;SDS011;16399;51.686;8.684;2023-02-26T13:14:29;2.60;;;0.70;;
29422;SDS011;16399;51.686;8.684;2023-02-26T13:17:30;1.75;;;0.62;;
29422;SDS011;16399;51.686;8.684;2023-02-26T13:20:32;3.50;;;1.02;;
29422;SDS011;16399;51.686;8.684;2023-02-26T13:23:40;4.78;;;1.10;;
29422;SDS011;16399;51.686;8.684;2023-02-26T13:26:51;1.95;;;0.70;;
29422;SDS011;16399;51.686;8.684;2023-02-26T13:30:03;3.05;;;1.00;;
29422;SDS011;16399;51.686;8.684;2023-02-26T13:33:06;3.08;;;0.60;;
29422;SDS011;16399;51.686;8.684;2023-02-26T13:36:12;3.35;;;0.70;;
29422;SDS011;16399;51.686;8.684;2023-02-26T13:39:21;1.65;;;0.90;;
29422;SDS011;16399;51.686;8.684;2023-02-26T13:42:32;2.77;;;0.78;;
29422;SDS011;16399;51.686;8.684;2023-02-26T13:45:47;3.40;;;0.60;;
29422;SDS011;16399;51.686;8.684;2023-02-26T13:49:22;0.80;;;0.50;;
29422;SDS011;16399;51.686;8.684;2023-02-26T13:52:25;1.98;;;0.82;;
29422;SDS011;16399;51.686;8.684;2023-02-26T13:55:43;1.87;;;0.50;;
29422;SDS011;16399;51.686;8.684;2023-02-26T13:58:48;3.58;;;0.95;;
29422;SDS011;16399;51.686;8.684;2023-02-26T14:01:56;2.05;;;0.65;;
29422;SDS011;16399;51.686;8.684;2023-02-26T14:05:07;4.67;;;0.75;;
29422;SDS011;16399;51.686;8.684;2023-02-26T14:08:17;1.50;;;0.60;;
29422;SDS011;16399;51.686;8.684;2023-02-26T14:14:43;3.67;;;0.90;;
29422;SDS011;16399;51.686;8.684;2023-02-26T14:17:48;3.15;;;0.85;;
29422;SDS011;16399;51.686;8.684;2023-02-26T14:20:52;2.80;;;0.80;;
29422;SDS011;16399;51.686;8.684;2023-02-26T14:23:59;2.02;;;0.88;;
29422;SDS011;16399;51.686;8.684;2023-02-26T14:27:07;3.27;;;1.00;;
29422;SDS011;16399;51.686;8.684;2023-02-26T14:30:18;2.83;;;0.60;;
29422;SDS011;16399;51.686;8.684;2023-02-26T14:33:31;3.00;;;1.00;;
29422;SDS011;16399;51.686;8.684;2023-02-26T14:36:45;1.72;;;0.70;;
29422;SDS011;16399;51.686;8.684;2023-02-26T14:39:57;3.95;;;0.88;;
29422;SDS011;16399;51.686;8.684;2023-02-26T14:43:11;1.87;;;0.70;;
29422;SDS011;16399;51.686;8.684;2023-02-26T14:46:14;2.25;;;0.82;;
29422;SDS011;16399;51.686;8.684;2023-02-26T14:49:18;2.15;;;0.90;;
29422;SDS011;16399;51.686;8.684;2023-02-26T14:52:32;2.95;;;0.95;;
29422;SDS011;16399;51.686;8.684;2023-02-26T14:55:39;2.55;;;0.68;;
29422;SDS011;16399;51.686;8.684;2023-02-26T14:58:44;3.30;;;1.02;;
29422;SDS011;16399;51.686;8.684;2023-02-26T15:01:56;3.10;;;0.85;;
29422;SDS011;16399;51.686;8.684;2023-02-26T15:05:04;2.17;;;0.70;;
29422;SDS011;16399;51.686;8.684;2023-02-26T15:14:43;2.92;;;0.80;;
29422;SDS011;16399;51.686;8.684;2023-02-26T15:21:10;3.67;;;0.90;;
29422;SDS011;16399;51.686;8.684;2023-02-26T15:24:28;3.90;;;0.90;;
29422;SDS011;16399;51.686;8.684;2023-02-26T15:27:31;2.65;;;0.80;;
29422;SDS011;16399;51.686;8.684;2023-02-26T15:30:36;5.58;;;0.72;;
29422;SDS011;16399;51.686;8.684;2023-02-26T15:33:38;4.08;;;1.05;;
29422;SDS011;16399;51.686;8.684;2023-02-26T15:36:44;2.02;;;0.57;;
29422;SDS011;16399;51.686;8.684;2023-02-26T15:39:52;3.37;;;0.90;;
29422;SDS011;16399;51.686;8.684;2023-02-26T15:42:52;2.83;;;0.90;;
29422;SDS011;16399;51.686;8.684;2023-02-26T15:45:57;2.15;;;0.70;;
29422;SDS011;16399;51.686;8.684;2023-02-26T15:49:01;3.37;;;0.88;;
29422;SDS011;16399;51.686;8.684;2023-02-26T15:52:16;3.95;;;1.00;;
29422;SDS011;16399;51.686;8.684;2023-02-26T15:55:20;3.08;;;1.00;;
29422;SDS011;16399;51.686;8.684;2023-02-26T15:58:33;2.70;;;0.62;;
29422;SDS011;16399;51.686;8.684;2023-02-26T16:01:37;3.05;;;1.10;;
29422;SDS011;16399;51.686;8.684;2023-02-26T16:04:41;5.35;;;1.70;;
29422;SDS011;16399;51.686;8.684;2023-02-26T16:07:44;3.70;;;1.20;;
29422;SDS011;16399;51.686;8.684;2023-02-26T16:10:47;5.12;;;1.85;;
29422;SDS011;16399;51.686;8.684;2023-02-26T16:13:51;6.92;;;1.47;;
29422;SDS011;16399;51.686;8.684;2023-02-26T16:16:54;3.77;;;1.57;;
29422;SDS011;16399;51.686;8.684;2023-02-26T16:19:58;6.00;;;1.70;;
29422;SDS011;16399;51.686;8.684;2023-02-26T16:23:12;3.72;;;1.42;;
29422;SDS011;16399;51.686;8.684;2023-02-26T16:26:35;5.03;;;1.62;;
29422;SDS011;16399;51.686;8.684;2023-02-26T16:29:47;5.75;;;1.07;;
29422;SDS011;16399;51.686;8.684;2023-02-26T16:32:47;3.15;;;1.00;;
29422;SDS011;16399;51.686;8.684;2023-02-26T16:35:56;1.47;;;0.75;;
29422;SDS011;16399;51.686;8.684;2023-02-26T16:45:55;2.33;;;0.95;;
29422;SDS011;16399;51.686;8.684;2023-02-26T16:49:09;2.65;;;0.95;;
29422;SDS011;16399;51.686;8.684;2023-02-26T16:52:18;2.05;;;0.90;;
29422;SDS011;16399;51.686;8.684;2023-02-26T16:55:24;3.60;;;1.47;;
29422;SDS011;16399;51.686;8.684;2023-02-26T16:58:28;4.40;;;1.27;;
29422;SDS011;16399;51.686;8.684;2023-02-26T17:01:36;5.42;;;1.40;;
29422;SDS011;16399;51.686;8.684;2023-02-26T17:04:40;3.62;;;1.20;;
29422;SDS011;16399;51.686;8.684;2023-02-26T17:07:47;4.83;;;1.45;;
29422;SDS011;16399;51.686;8.684;2023-02-26T17:10:59;8.38;;;2.37;;
29422;SDS011;16399;51.686;8.684;2023-02-26T17:14:13;6.75;;;2.37;;
29422;SDS011;16399;51.686;8.684;2023-02-26T17:17:10;4.75;;;2.05;;
29422;SDS011;16399;51.686;8.684;2023-02-26T17:20:12;7.72;;;2.47;;
29422;SDS011;16399;51.686;8.684;2023-02-26T17:23:16;5.95;;;1.90;;
29422;SDS011;16399;51.686;8.684;2023-02-26T17:26:21;3.67;;;1.30;;
29422;SDS011;16399;51.686;8.684;2023-02-26T17:29:45;6.37;;;1.27;;
29422;SDS011;16399;51.686;8.684;2023-02-26T17:32:32;2.77;;;1.20;;
29422;SDS011;16399;51.686;8.684;2023-02-26T17:35:35;6.10;;;1.92;;
29422;SDS011;16399;51.686;8.684;2023-02-26T17:38:37;4.85;;;1.85;;
29422;SDS011;16399;51.686;8.684;2023-02-26T17:41:41;7.15;;;2.65;;
29422;SDS011;16399;51.686;8.684;2023-02-26T17:44:45;7.20;;;2.60;;
29422;SDS011;16399;51.686;8.684;2023-02-26T17:47:48;8.65;;;3.17;;
29422;SDS011;16399;51.686;8.684;2023-02-26T17:50:56;7.45;;;2.40;;
29422;SDS011;16399;51.686;8.684;2023-02-26T17:53:55;5.60;;;1.98;;
29422;SDS011;16399;51.686;8.684;2023-02-26T17:56:57;7.28;;;2.50;;
29422;SDS011;16399;51.686;8.684;2023-02-26T18:00:00;9.45;;;3.00;;
29422;SDS011;16399;51.686;8.684;2023-02-26T18:03:04;7.20;;;3.00;;
29422;SDS011;16399;51.686;8.684;2023-02-26T18:06:08;8.58;;;3.17;;
29422;SDS011;16399;51.686;8.684;2023-02-26T18:09:12;8.43;;;2.77;;
29422;SDS011;16399;51.686;8.684;2023-02-26T18:12:20;5.12;;;1.98;;
29422;SDS011;16399;51.686;8.684;2023-02-26T18:15:20;5.37;;;1.70;;
29422;SDS011;16399;51.686;8.684;2023-02-26T18:18:22;4.47;;;1.62;;
29422;SDS011;16399;51.686;8.684;2023-02-26T18:21:26;5.65;;;1.60;;
29422;SDS011;16399;51.686;8.684;2023-02-26T18:24:28;5.17;;;1.47;;
29422;SDS011;16399;51.686;8.684;2023-02-26T18:27:31;3.55;;;1.55;;
29422;SDS011;16399;51.686;8.684;2023-02-26T18:30:34;5.45;;;2.02;;
29422;SDS011;16399;51.686;8.684;2023-02-26T18:33:38;8.25;;;2.27;;
29422;SDS011;16399;51.686;8.684;2023-02-26T18:36:42;4.33;;;1.87;;
29422;SDS011;16399;51.686;8.684;2023-02-26T18:39:45;4.92;;;2.02;;
29422;SDS011;16399;51.686;8.684;2023-02-26T18:42:47;8.08;;;1.80;;
29422;SDS011;16399;51.686;8.684;2023-02-26T18:45:50;4.45;;;1.50;;
29422;SDS011;16399;51.686;8.684;2023-02-26T18:48:53;7.75;;;2.22;;
29422;SDS011;16399;51.686;8.684;2023-02-26T18:51:55;5.58;;;1.92;;
29422;SDS011;16399;51.686;8.684;2023-02-26T18:54:58;6.60;;;2.33;;
29422;SDS011;16399;51.686;8.684;2023-02-26T18:58:02;7.83;;;3.20;;
29422;SDS011;16399;51.686;8.684;2023-02-26T19:01:05;4.75;;;2.40;;
29422;SDS011;16399;51.686;8.684;2023-02-26T19:04:07;4.55;;;1.98;;
29422;SDS011;16399;51.686;8.684;2023-02-26T19:07:09;6.47;;;2.37;;
29422;SDS011;16399;51.686;8.684;2023-02-26T19:10:11;5.28;;;2.60;;
29422;SDS011;16399;51.686;8.684;2023-02-26T19:13:14;6.12;;;2.47;;
29422;SDS011;16399;51.686;8.684;2023-02-26T19:16:16;9.23;;;3.25;;
29422;SDS011;16399;51.686;8.684;2023-02-26T19:19:20;12.63;;;4.67;;
29422;SDS011;16399;51.686;8.684;2023-02-26T19:22:23;13.78;;;5.92;;
29422;SDS011;16399;51.686;8.684;2023-02-26T19:25:25;9.78;;;4.20;;
29422;SDS011;16399;51.686;8.684;2023-02-26T19:28:29;8.30;;;3.30;;
29422;SDS011;16399;51.686;8.684;2023-02-26T19:31:32;9.55;;;3.45;;
29422;SDS011;16399;51.686;8.684;2023-02-26T19:34:35;7.62;;;3.10;;
29422;SDS011;16399;51.686;8.684;2023-02-26T19:37:38;14.47;;;6.15;;
29422;SDS011;16399;51.686;8.684;2023-02-26T19:40:40;17.40;;;5.20;;
29422;SDS011;16399;51.686;8.684;2023-02-26T19:43:43;9.45;;;3.72;;
29422;SDS011;16399;51.686;8.684;2023-02-26T19:46:49;11.43;;;4.10;;
29422;SDS011;16399;51.686;8.684;2023-02-26T19:49:52;11.00;;;4.55;;
29422;SDS011;16399;51.686;8.684;2023-02-26T19:52:54;10.20;;;4.17;;
29422;SDS011;16399;51.686;8.684;2023-02-26T19:55:58;16.57;;;5.03;;
29422;SDS011;16399;51.686;8.684;2023-02-26T19:59:00;51.00;;;17.40;;
29422;SDS011;16399;51.686;8.684;2023-02-26T20:02:02;48.95;;;17.20;;
29422;SDS011;16399;51.686;8.684;2023-02-26T20:05:05;15.78;;;5.70;;
29422;SDS011;16399;51.686;8.684;2023-02-26T20:08:10;10.10;;;3.65;;